首页
METAR-TAF:

METAR-TAF

机场 :

格域機場, 英格兰

纬度: 51-09N, 经度: 000-11W, 海拔: 62米

当前天气观测

该预报发布于30分钟前的18:20 UTC
风速12节,风向西南
温度 9°C
湿度 76%
气压 1016 hPa
能见度10公里或以上
少量云层高于2100英尺

METAR: EGKK 181820Z 22012KT 9999 FEW021 09/05 Q1016

时间: 18:50 (18:50 UTC)

预报

该预报发布于1小时和51分钟前的16:59 UTC
预报有效从18日的 18点(UTC)到 19日的 24点(UTC)
风速12节,风向西南
能见度10公里或以上
散云层高于2500英尺
短暂存在
从 18日的 18点(UTC)到 18日的 22点(UTC)
风速20节,风向西南,有时为32节阵风
能見度: 4000
多云层高于1000英尺, 积雨云.
大阵雨
几率 30% :
短暂存在
从 18日的 18点(UTC)到 18日的 22点(UTC)
阵雨, 小冰雹或雪球
成为
从 18日的 21点(UTC)到 18日的 24点(UTC)
风速12节,风向西转西北
成为
从 19日的 08点(UTC)到 19日的 11点(UTC)
风速12节,风向西南
短暂存在
从 19日的 12点(UTC)到 19日的 18点(UTC)
能見度: 6000
多云层高于1200英尺
几率 30% :
短暂存在
从 19日的 18点(UTC)到 19日的 24点(UTC)
风速15节,风向西南,有时为25节阵风
能見度: 6000
多云层高于1400英尺

TAF: EGKK 181659Z 1818/1924 23012KT 9999 SCT025 TEMPO 1818/1822 23020G32KT 4000 +SHRA BKN010CB PROB30 TEMPO 1818/1822 SHGS BECMG 1821/1824 29012KT BECMG 1908/1911 23012KT TEMPO 1912/1918 6000 RA BKN012 PROB30 TEMPO 1918/1924 23015G25KT 6000 RA BKN014

超过4000个机场的气象观测和天气预报(METAR&TAF报告)。

可查询的气象台以黄色和红色小点在地图上表示。

将鼠标移到小点上方,可查看气象台名称。

然后点击查看天气观测和预报。

如需切换地图:点击带黑十字的绿色按钮放大地图;点击带横线的绿色按钮缩小地图;或者点击绿色箭头查看邻近地区的地图。


METAR-TAF: